Alpha Afovos — SZSJ — position and weather

sailwx.info

Track history (hours):
 
Tides and Currents Weather Stations Pressure Air Temp Water Temp Dewpoint Dewpoint Depression Visibility Wind Speed Wind Dir Waves Ship Positions

Alpha Afovos

Last reported at 2014-Sep-07 21:31 UTC. Time now 2014-Oct-22 00:07 UTC.
Position N 31°52' E 132°21'.
Warning: this ship's position is 44 days out of date.

Length 223 m; draft 7.2 m.

Type: Cargo ship. MMSI: 239802000.

Date/timePositionNaut miles runAvg speedWind from/ knotsBaromVisibWave heightAir tempDewpointWater temp
2014-Sep-07 21:31N 31°52' E 132°21'  
2014-Sep-05 16:11N 31°26' E 124°40'6614.0
2014-Sep-05 11:29N 31°09' E 123°25'9 8.2
2014-Sep-05 10:23N 31°06' E 123°15'15 2.8
2014-Sep-05 05:12N 30°58' E 123°01'6 8.8
2014-Sep-05 04:33N 30°58' E 122°54'6 5.7
2014-Sep-05 03:26N 30°57' E 122°47'4 4.9
2014-Sep-05 02:33N 30°57' E 122°42'1111.2
2014-Sep-05 01:33N 30°60' E 122°29'1211.8
2014-Sep-05 00:34N 31°02' E 122°16'2010.0
2014-Sep-04 22:33N 31°09' E 121°54'1212.2
2014-Sep-04 21:33N 31°17' E 121°44'1212.0
2014-Sep-04 20:34N 31°24' E 121°32'1010.3
2014-Sep-04 19:33N 31°31' E 121°23'1413.8
2014-Sep-04 18:33N 31°41' E 121°11'1414.0
2014-Sep-04 17:33N 31°47' E 120°57'1313.4
2014-Sep-04 16:33N 31°59' E 120°50'1212.2
2014-Sep-04 15:33N 32°01' E 120°36'9 8.9
2014-Sep-04 14:33N 32°02' E 120°25'1111.3
2014-Sep-04 13:33N 31°56' E 120°15'1211.8
2014-Sep-04 12:34N 31°58' E 120°01'1613.7
2014-Sep-04 11:24N 32°13' E 119°54'1 0.1
2014-Sep-03 23:29N 32°14' E 119°54'0 0.0
2014-Sep-03 21:29N 32°14' E 119°54'0 0.0
2014-Sep-03 20:11N 32°14' E 119°54'0 0.0
2014-Sep-03 19:29N 32°14' E 119°54'0 0.0
2014-Sep-03 18:11N 32°14' E 119°54'0 0.0
2014-Sep-03 17:17N 32°14' E 119°54'0 0.0
2014-Sep-03 12:29N 32°14' E 119°54'0 0.0
2014-Sep-03 00:23N 32°14' E 119°54'0 0.0
2014-Sep-02 23:11N 32°14' E 119°54'0 0.0
2014-Sep-02 22:23N 32°14' E 119°54'0 0.0
2014-Sep-02 21:29N 32°14' E 119°54'0 0.0
2014-Sep-02 20:23N 32°14' E 119°54'0 0.0
2014-Sep-02 19:29N 32°14' E 119°54'0 0.0
2014-Sep-02 18:29N 32°14' E 119°54'0 0.0
2014-Sep-02 16:11N 32°14' E 119°54'0 0.0
2014-Sep-02 14:11N 32°14' E 119°54'0 0.0
2014-Sep-02 13:23N 32°14' E 119°54'0 0.0
2014-Sep-02 12:29N 32°14' E 119°54'0 0.0
2014-Sep-02 09:29N 32°14' E 119°54'0 0.0
2014-Sep-02 07:29N 32°14' E 119°54'0 0.0
2014-Sep-02 06:29N 32°14' E 119°54'0 0.0
2014-Sep-02 00:23N 32°14' E 119°54'0 0.0
2014-Sep-01 23:17N 32°14' E 119°54'0 0.0
2014-Sep-01 22:23N 32°14' E 119°54'0 0.0
2014-Sep-01 21:29N 32°14' E 119°54'0 0.0
2014-Sep-01 20:29N 32°14' E 119°54'0 0.0
2014-Sep-01 19:29N 32°14' E 119°54'0 0.0
2014-Sep-01 17:23N 32°14' E 119°54'0 0.0
2014-Sep-01 16:29N 32°14' E 119°54'0 0.0
2014-Sep-01 15:11N 32°14' E 119°54'0 0.0
2014-Sep-01 14:17N 32°14' E 119°54'0 0.0
2014-Sep-01 09:23N 32°14' E 119°54'0 0.0
2014-Sep-01 08:26N 32°14' E 119°54'5 5.4
2014-Sep-01 07:27N 32°08' E 119°55'8 9.5
2014-Sep-01 06:34N 32°00' E 119°58'9 8.5
2014-Sep-01 05:30N 31°56' E 120°08'7 7.7
2014-Sep-01 04:33N 31°57' E 120°17'9 8.9
2014-Sep-01 03:33N 31°59' E 120°27'7 6.3
2014-Sep-01 02:30N 32°01' E 120°34'1010.2
2014-Sep-01 01:33N 32°01' E 120°46'10 9.7
2014-Sep-01 00:33N 31°53' E 120°53'9 8.8
2014-Aug-31 23:33N 31°47' E 120°60'1110.3
2014-Aug-31 22:30N 31°41' E 121°11'1010.4
2014-Aug-31 21:33N 31°35' E 121°20'0 0.2
2014-Aug-31 20:21N 31°35' E 121°20'0 0.0
2014-Aug-31 19:21N 31°35' E 121°20'0 0.0
2014-Aug-31 18:33N 31°35' E 121°20'0 0.2
2014-Aug-31 17:27N 31°35' E 121°20'0 0.0
2014-Aug-31 16:21N 31°35' E 121°20'0 0.1
2014-Aug-31 15:15N 31°35' E 121°20'0 0.0
2014-Aug-31 14:21N 31°35' E 121°20'0 0.0
2014-Aug-31 13:21N 31°35' E 121°20'0 0.0
2014-Aug-31 11:24N 31°35' E 121°20'0 0.2
2014-Aug-31 10:14N 31°35' E 121°20'4 5.5
2014-Aug-31 09:31N 31°32' E 121°22'1010.3
2014-Aug-31 08:33N 31°25' E 121°31'8 7.9
2014-Aug-31 07:33N 31°21' E 121°39'1410.3
2014-Aug-31 06:13N 31°16' E 121°54'2512.1
2014-Aug-31 04:07N 31°06' E 122°21'1013.2
2014-Aug-31 03:21N 31°07' E 122°33'65 2.5
2014-Aug-30 01:08N 30°54' E 123°47'98 7.8
2014-Aug-29 12:31N 29°38' E 122°36'9 9.0
2014-Aug-29 11:32N 29°42' E 122°26'1010.0
2014-Aug-29 10:33N 29°47' E 122°16'1111.5
2014-Aug-29 09:33N 29°55' E 122°08'10 9.6
2014-Aug-29 08:33N 30°01' E 121°59'1 0.5
2014-Aug-29 07:31N 30°02' E 121°59'0 0.0
2014-Aug-29 06:31N 30°02' E 121°59'0 0.0
2014-Aug-29 05:31N 30°02' E 121°59'0 0.0
2014-Aug-29 04:31N 30°02' E 121°59'0 0.0
2014-Aug-29 03:31N 30°02' E 121°59'0 0.0
2014-Aug-29 02:31N 30°02' E 121°59'0 0.0
2014-Aug-29 01:31N 30°02' E 121°59'0 0.0
2014-Aug-29 00:31N 30°02' E 121°59'0 0.0
2014-Aug-28 23:31N 30°02' E 121°59'0 0.0
2014-Aug-28 22:31N 30°02' E 121°59'  
Track history (hours):
 
Tides and Currents Weather Stations Pressure Air Temp Water Temp Dewpoint Dewpoint Depression Visibility Wind Speed Wind Dir Waves Ship Positions

Alpha Afovos

Last reported at 2014-Sep-07 21:31 UTC. Time now 2014-Oct-22 00:07 UTC.
Position N 31°52' E 132°21'.
Warning: this ship's position is 44 days out of date.

Length 223 m; draft 7.2 m.

Type: Cargo ship. MMSI: 239802000.

Date/timePositionNaut miles runAvg speedWind from/ knotsBaromVisibWave heightAir tempDewpointWater temp
2014-Sep-07 21:31N 31°52' E 132°21'  
2014-Sep-05 16:11N 31°26' E 124°40'6614.0
2014-Sep-05 11:29N 31°09' E 123°25'9 8.2
2014-Sep-05 10:23N 31°06' E 123°15'15 2.8
2014-Sep-05 05:12N 30°58' E 123°01'6 8.8
2014-Sep-05 04:33N 30°58' E 122°54'6 5.7
2014-Sep-05 03:26N 30°57' E 122°47'4 4.9
2014-Sep-05 02:33N 30°57' E 122°42'1111.2
2014-Sep-05 01:33N 30°60' E 122°29'1211.8
2014-Sep-05 00:34N 31°02' E 122°16'2010.0
2014-Sep-04 22:33N 31°09' E 121°54'1212.2
2014-Sep-04 21:33N 31°17' E 121°44'1212.0
2014-Sep-04 20:34N 31°24' E 121°32'1010.3
2014-Sep-04 19:33N 31°31' E 121°23'1413.8
2014-Sep-04 18:33N 31°41' E 121°11'1414.0
2014-Sep-04 17:33N 31°47' E 120°57'1313.4
2014-Sep-04 16:33N 31°59' E 120°50'1212.2
2014-Sep-04 15:33N 32°01' E 120°36'9 8.9
2014-Sep-04 14:33N 32°02' E 120°25'1111.3
2014-Sep-04 13:33N 31°56' E 120°15'1211.8
2014-Sep-04 12:34N 31°58' E 120°01'1613.7
2014-Sep-04 11:24N 32°13' E 119°54'1 0.1
2014-Sep-03 23:29N 32°14' E 119°54'0 0.0
2014-Sep-03 21:29N 32°14' E 119°54'0 0.0
2014-Sep-03 20:11N 32°14' E 119°54'0 0.0
2014-Sep-03 19:29N 32°14' E 119°54'0 0.0
2014-Sep-03 18:11N 32°14' E 119°54'0 0.0
2014-Sep-03 17:17N 32°14' E 119°54'0 0.0
2014-Sep-03 12:29N 32°14' E 119°54'0 0.0
2014-Sep-03 00:23N 32°14' E 119°54'0 0.0
2014-Sep-02 23:11N 32°14' E 119°54'0 0.0
2014-Sep-02 22:23N 32°14' E 119°54'0 0.0
2014-Sep-02 21:29N 32°14' E 119°54'0 0.0
2014-Sep-02 20:23N 32°14' E 119°54'0 0.0
2014-Sep-02 19:29N 32°14' E 119°54'0 0.0
2014-Sep-02 18:29N 32°14' E 119°54'0 0.0
2014-Sep-02 16:11N 32°14' E 119°54'0 0.0
2014-Sep-02 14:11N 32°14' E 119°54'0 0.0
2014-Sep-02 13:23N 32°14' E 119°54'0 0.0
2014-Sep-02 12:29N 32°14' E 119°54'0 0.0
2014-Sep-02 09:29N 32°14' E 119°54'0 0.0
2014-Sep-02 07:29N 32°14' E 119°54'0 0.0
2014-Sep-02 06:29N 32°14' E 119°54'0 0.0
2014-Sep-02 00:23N 32°14' E 119°54'0 0.0
2014-Sep-01 23:17N 32°14' E 119°54'0 0.0
2014-Sep-01 22:23N 32°14' E 119°54'0 0.0
2014-Sep-01 21:29N 32°14' E 119°54'0 0.0
2014-Sep-01 20:29N 32°14' E 119°54'0 0.0
2014-Sep-01 19:29N 32°14' E 119°54'0 0.0
2014-Sep-01 17:23N 32°14' E 119°54'0 0.0
2014-Sep-01 16:29N 32°14' E 119°54'0 0.0
2014-Sep-01 15:11N 32°14' E 119°54'0 0.0
2014-Sep-01 14:17N 32°14' E 119°54'0 0.0
2014-Sep-01 09:23N 32°14' E 119°54'0 0.0
2014-Sep-01 08:26N 32°14' E 119°54'5 5.4
2014-Sep-01 07:27N 32°08' E 119°55'8 9.5
2014-Sep-01 06:34N 32°00' E 119°58'9 8.5
2014-Sep-01 05:30N 31°56' E 120°08'7 7.7
2014-Sep-01 04:33N 31°57' E 120°17'9 8.9
2014-Sep-01 03:33N 31°59' E 120°27'7 6.3
2014-Sep-01 02:30N 32°01' E 120°34'1010.2
2014-Sep-01 01:33N 32°01' E 120°46'10 9.7
2014-Sep-01 00:33N 31°53' E 120°53'9 8.8
2014-Aug-31 23:33N 31°47' E 120°60'1110.3
2014-Aug-31 22:30N 31°41' E 121°11'1010.4
2014-Aug-31 21:33N 31°35' E 121°20'0 0.2
2014-Aug-31 20:21N 31°35' E 121°20'0 0.0
2014-Aug-31 19:21N 31°35' E 121°20'0 0.0
2014-Aug-31 18:33N 31°35' E 121°20'0 0.2
2014-Aug-31 17:27N 31°35' E 121°20'0 0.0
2014-Aug-31 16:21N 31°35' E 121°20'0 0.1
2014-Aug-31 15:15N 31°35' E 121°20'0 0.0
2014-Aug-31 14:21N 31°35' E 121°20'0 0.0
2014-Aug-31 13:21N 31°35' E 121°20'0 0.0
2014-Aug-31 11:24N 31°35' E 121°20'0 0.2
2014-Aug-31 10:14N 31°35' E 121°20'4 5.5
2014-Aug-31 09:31N 31°32' E 121°22'1010.3
2014-Aug-31 08:33N 31°25' E 121°31'8 7.9
2014-Aug-31 07:33N 31°21' E 121°39'1410.3
2014-Aug-31 06:13N 31°16' E 121°54'2512.1
2014-Aug-31 04:07N 31°06' E 122°21'1013.2
2014-Aug-31 03:21N 31°07' E 122°33'65 2.5
2014-Aug-30 01:08N 30°54' E 123°47'98 7.8
2014-Aug-29 12:31N 29°38' E 122°36'9 9.0
2014-Aug-29 11:32N 29°42' E 122°26'1010.0
2014-Aug-29 10:33N 29°47' E 122°16'1111.5
2014-Aug-29 09:33N 29°55' E 122°08'10 9.6
2014-Aug-29 08:33N 30°01' E 121°59'1 0.5
2014-Aug-29 07:31N 30°02' E 121°59'0 0.0
2014-Aug-29 06:31N 30°02' E 121°59'0 0.0
2014-Aug-29 05:31N 30°02' E 121°59'0 0.0
2014-Aug-29 04:31N 30°02' E 121°59'0 0.0
2014-Aug-29 03:31N 30°02' E 121°59'0 0.0
2014-Aug-29 02:31N 30°02' E 121°59'0 0.0
2014-Aug-29 01:31N 30°02' E 121°59'0 0.0
2014-Aug-29 00:31N 30°02' E 121°59'0 0.0
2014-Aug-28 23:31N 30°02' E 121°59'0 0.0
2014-Aug-28 22:31N 30°02' E 121°59'  

Dump ship's entire track history